VOE5TD LEAS-EBBR
Flight info
| Callsign | VOE5TD |
|---|---|
| Flight time | 1h 47m |
| Altitude | 24000 |
| Route | MAVOS M30 LOTEE/N0450F380 DCT AZFIC DCT ERIGA/N0431F340 DCT GODIX DCT PODEM UN873 BAZOS DCT BELDI DCT VEKIN/N0377F240 Z173 ARVOL |
| Aircraft | A320/M-SDE3FGHIRWY/LB1 |
Departure
| Time | 2026-05-05 12:38 |
|---|---|
| Airport | Asturias Airport (LEAS) |
Arrival
| Time | 2026-05-05 14:25 |
|---|---|
| Airport | Brussels Airport (EBBR) |
| Time | Latitude | Longitude | Altitude | Speed | Heading |
|---|---|---|---|---|---|
| 2026-05-05 12:18 | 43.56014 | -6.03270 | 399 ft | 0 kts | 243° |
| 2026-05-05 12:34 | 43.56021 | -6.03282 | 417 ft | 3 kts | 319° |
| 2026-05-05 12:34 | 43.56043 | -6.03252 | 418 ft | 9 kts | 56° |
| 2026-05-05 12:34 | 43.56077 | -6.03236 | 421 ft | 5 kts | 21° |
| 2026-05-05 12:35 | 43.56111 | -6.03127 | 428 ft | 18 kts | 111° |
| 2026-05-05 12:35 | 43.56074 | -6.02969 | 423 ft | 17 kts | 109° |
| 2026-05-05 12:35 | 43.56035 | -6.02809 | 420 ft | 18 kts | 108° |
| 2026-05-05 12:35 | 43.56000 | -6.02656 | 420 ft | 16 kts | 107° |
| 2026-05-05 12:36 | 43.55967 | -6.02514 | 423 ft | 15 kts | 108° |
| 2026-05-05 12:36 | 43.55947 | -6.02372 | 425 ft | 16 kts | 83° |
| 2026-05-05 12:36 | 43.55987 | -6.02245 | 419 ft | 14 kts | 62° |
| 2026-05-05 12:36 | 43.56047 | -6.02202 | 420 ft | 7 kts | 352° |
| 2026-05-05 12:37 | 43.56065 | -6.02232 | 413 ft | 0 kts | 290° |
| 2026-05-05 12:37 | 43.56088 | -6.02325 | 418 ft | 41 kts | 289° |
| 2026-05-05 12:37 | 43.56198 | -6.02787 | 425 ft | 80 kts | 288° |
| 2026-05-05 12:37 | 43.56435 | -6.03784 | 419 ft | 138 kts | 288° |
| 2026-05-05 12:38 | 43.56748 | -6.05047 | 1029 ft | 134 kts | 289° |
| 2026-05-05 12:38 | 43.57055 | -6.06264 | 1747 ft | 137 kts | 287° |
| 2026-05-05 12:38 | 43.57352 | -6.07510 | 2408 ft | 136 kts | 288° |
| 2026-05-05 12:38 | 43.57639 | -6.08749 | 3009 ft | 135 kts | 288° |
| 2026-05-05 12:39 | 43.57926 | -6.09985 | 3583 ft | 136 kts | 288° |
| 2026-05-05 12:39 | 43.58231 | -6.11302 | 3906 ft | 155 kts | 288° |
| 2026-05-05 12:39 | 43.58583 | -6.12820 | 4189 ft | 178 kts | 288° |
| 2026-05-05 12:39 | 43.58988 | -6.14551 | 4528 ft | 200 kts | 288° |
| 2026-05-05 12:40 | 43.59623 | -6.16275 | 5184 ft | 207 kts | 315° |
| 2026-05-05 12:40 | 43.60917 | -6.17113 | 5902 ft | 218 kts | 354° |
| 2026-05-05 12:40 | 43.62430 | -6.16724 | 6668 ft | 226 kts | 13° |
| 2026-05-05 12:40 | 43.63934 | -6.16056 | 7458 ft | 227 kts | 14° |
| 2026-05-05 12:41 | 43.65438 | -6.15364 | 8257 ft | 229 kts | 14° |
| 2026-05-05 12:41 | 43.66958 | -6.14663 | 9064 ft | 231 kts | 14° |
| 2026-05-05 12:41 | 43.68493 | -6.13960 | 9847 ft | 234 kts | 14° |
| 2026-05-05 12:41 | 43.70046 | -6.13253 | 10595 ft | 236 kts | 15° |
| 2026-05-05 12:42 | 43.71619 | -6.12538 | 11324 ft | 239 kts | 15° |
| 2026-05-05 12:42 | 43.73208 | -6.11787 | 11951 ft | 249 kts | 17° |
| 2026-05-05 12:42 | 43.74898 | -6.10881 | 12227 ft | 272 kts | 19° |
| 2026-05-05 12:42 | 43.76730 | -6.09846 | 12487 ft | 296 kts | 19° |
| 2026-05-05 12:43 | 43.78710 | -6.08708 | 12712 ft | 319 kts | 20° |
| 2026-05-05 12:43 | 43.80100 | -6.07909 | 12921 ft | 332 kts | 20° |
| 2026-05-05 12:43 | 43.82261 | -6.06665 | 13560 ft | 339 kts | 20° |
| 2026-05-05 12:43 | 43.84454 | -6.05406 | 14224 ft | 343 kts | 21° |
| 2026-05-05 12:44 | 43.86672 | -6.04137 | 14892 ft | 347 kts | 20° |
| 2026-05-05 12:44 | 43.88912 | -6.02859 | 15572 ft | 350 kts | 21° |
| 2026-05-05 12:44 | 43.91179 | -6.01570 | 16242 ft | 353 kts | 20° |
| 2026-05-05 12:44 | 43.93463 | -6.00274 | 16910 ft | 356 kts | 20° |
| 2026-05-05 12:45 | 43.95766 | -5.98965 | 17564 ft | 360 kts | 21° |
| 2026-05-05 12:45 | 43.98091 | -5.97644 | 18232 ft | 363 kts | 21° |
| 2026-05-05 12:45 | 44.01204 | -5.95873 | 18992 ft | 367 kts | 21° |
| 2026-05-05 12:45 | 44.02808 | -5.94961 | 19372 ft | 369 kts | 21° |
| 2026-05-05 12:46 | 44.05229 | -5.93730 | 19937 ft | 372 kts | 14° |
| 2026-05-05 12:46 | 44.07744 | -5.93073 | 20492 ft | 374 kts | 6° |
| 2026-05-05 12:46 | 44.10342 | -5.92660 | 21059 ft | 377 kts | 6° |
| 2026-05-05 12:46 | 44.12973 | -5.92245 | 21626 ft | 381 kts | 6° |
| 2026-05-05 12:47 | 44.15616 | -5.91827 | 22198 ft | 384 kts | 6° |
| 2026-05-05 12:47 | 44.18283 | -5.91403 | 22728 ft | 387 kts | 7° |
| 2026-05-05 12:47 | 44.20972 | -5.90972 | 23259 ft | 391 kts | 7° |
| 2026-05-05 12:47 | 44.23689 | -5.90531 | 23749 ft | 394 kts | 7° |
| 2026-05-05 12:48 | 44.26426 | -5.90085 | 24160 ft | 398 kts | 7° |
| 2026-05-05 12:48 | 44.29185 | -5.89636 | 24591 ft | 400 kts | 7° |
| 2026-05-05 12:48 | 44.31962 | -5.89186 | 25018 ft | 403 kts | 7° |
| 2026-05-05 12:48 | 44.34755 | -5.88739 | 25443 ft | 405 kts | 7° |
| 2026-05-05 12:49 | 44.37563 | -5.88287 | 25846 ft | 407 kts | 7° |
| 2026-05-05 12:49 | 44.40350 | -5.87832 | 26249 ft | 409 kts | 7° |
| 2026-05-05 12:49 | 44.43185 | -5.87369 | 26649 ft | 411 kts | 7° |
| 2026-05-05 12:49 | 44.46038 | -5.86906 | 27051 ft | 413 kts | 7° |
| 2026-05-05 12:50 | 44.48901 | -5.86440 | 27420 ft | 416 kts | 6° |
| 2026-05-05 12:50 | 44.51789 | -5.85970 | 27792 ft | 418 kts | 6° |
| 2026-05-05 12:50 | 44.54690 | -5.85497 | 28152 ft | 421 kts | 6° |
| 2026-05-05 12:50 | 44.57605 | -5.85023 | 28522 ft | 423 kts | 6° |
| 2026-05-05 12:51 | 44.60539 | -5.84532 | 28864 ft | 425 kts | 8° |
| 2026-05-05 12:51 | 44.63421 | -5.83585 | 29212 ft | 428 kts | 18° |
| 2026-05-05 12:51 | 44.66170 | -5.81940 | 29535 ft | 431 kts | 28° |
| 2026-05-05 12:51 | 44.68689 | -5.79648 | 29845 ft | 434 kts | 38° |
| 2026-05-05 12:52 | 44.70934 | -5.76791 | 30136 ft | 437 kts | 43° |
| 2026-05-05 12:52 | 44.73108 | -5.73803 | 30386 ft | 439 kts | 44° |
| 2026-05-05 12:52 | 44.75298 | -5.70796 | 30632 ft | 441 kts | 44° |
| 2026-05-05 12:52 | 44.77494 | -5.67781 | 30867 ft | 442 kts | 44° |
| 2026-05-05 12:53 | 44.79702 | -5.64748 | 31098 ft | 444 kts | 44° |
| 2026-05-05 12:53 | 44.81918 | -5.61701 | 31327 ft | 446 kts | 44° |
| 2026-05-05 12:53 | 44.84140 | -5.58648 | 31610 ft | 446 kts | 43° |
| 2026-05-05 12:53 | 44.86358 | -5.55600 | 31931 ft | 445 kts | 43° |
| 2026-05-05 12:54 | 44.90779 | -5.49499 | 32532 ft | 445 kts | 44° |
| 2026-05-05 12:54 | 44.92990 | -5.46436 | 32824 ft | 445 kts | 44° |
| 2026-05-05 12:54 | 44.95178 | -5.43407 | 33102 ft | 446 kts | 43° |
| 2026-05-05 12:55 | 44.97395 | -5.40335 | 33384 ft | 446 kts | 43° |
| 2026-05-05 12:55 | 44.99609 | -5.37265 | 33678 ft | 446 kts | 43° |
| 2026-05-05 12:55 | 45.01827 | -5.34184 | 33975 ft | 447 kts | 43° |
| 2026-05-05 12:55 | 45.04039 | -5.31103 | 34223 ft | 447 kts | 44° |
| 2026-05-05 12:56 | 45.06250 | -5.28017 | 34464 ft | 447 kts | 43° |
| 2026-05-05 12:56 | 45.08468 | -5.24925 | 34698 ft | 447 kts | 43° |
| 2026-05-05 12:56 | 45.10687 | -5.21831 | 34922 ft | 448 kts | 43° |
| 2026-05-05 12:56 | 45.12904 | -5.18736 | 35133 ft | 448 kts | 44° |
| 2026-05-05 12:57 | 45.15124 | -5.15635 | 35347 ft | 449 kts | 43° |
| 2026-05-05 12:57 | 45.17349 | -5.12523 | 35560 ft | 449 kts | 44° |
| 2026-05-05 12:57 | 45.19572 | -5.09405 | 35762 ft | 449 kts | 44° |
| 2026-05-05 12:57 | 45.21790 | -5.06284 | 35956 ft | 450 kts | 44° |
| 2026-05-05 12:58 | 45.24010 | -5.03157 | 36150 ft | 450 kts | 43° |
| 2026-05-05 12:58 | 45.26237 | -5.00024 | 36341 ft | 451 kts | 44° |
| 2026-05-05 12:58 | 45.28465 | -4.96891 | 36514 ft | 451 kts | 44° |
| 2026-05-05 12:58 | 45.30701 | -4.93746 | 36694 ft | 452 kts | 44° |
| 2026-05-05 12:59 | 45.32936 | -4.90599 | 36876 ft | 452 kts | 44° |
| 2026-05-05 12:59 | 45.35168 | -4.87451 | 37049 ft | 452 kts | 44° |
| 2026-05-05 12:59 | 45.37398 | -4.84297 | 37215 ft | 453 kts | 44° |
| 2026-05-05 13:00 | 45.41865 | -4.77958 | 37550 ft | 454 kts | 44° |
| 2026-05-05 13:00 | 45.44096 | -4.74780 | 37710 ft | 454 kts | 44° |
| 2026-05-05 13:01 | 45.50803 | -4.65224 | 37994 ft | 455 kts | 44° |
| 2026-05-05 13:01 | 45.53038 | -4.62040 | 37990 ft | 455 kts | 44° |
| 2026-05-05 13:01 | 45.57508 | -4.55640 | 37988 ft | 455 kts | 44° |
| 2026-05-05 13:02 | 45.61948 | -4.49284 | 37986 ft | 455 kts | 44° |
| 2026-05-05 13:02 | 45.66418 | -4.42870 | 37984 ft | 455 kts | 44° |
| 2026-05-05 13:03 | 45.70881 | -4.36431 | 37990 ft | 456 kts | 44° |
| 2026-05-05 13:03 | 45.75316 | -4.30019 | 37992 ft | 456 kts | 45° |
| 2026-05-05 13:04 | 45.79781 | -4.23555 | 37996 ft | 456 kts | 45° |
| 2026-05-05 13:04 | 45.84215 | -4.17126 | 38005 ft | 456 kts | 45° |
| 2026-05-05 13:05 | 45.88701 | -4.10607 | 37997 ft | 456 kts | 45° |
| 2026-05-05 13:05 | 45.93137 | -4.04167 | 37997 ft | 456 kts | 45° |
| 2026-05-05 13:06 | 45.97586 | -3.97658 | 37992 ft | 456 kts | 45° |
| 2026-05-05 13:06 | 46.02032 | -3.91137 | 37992 ft | 456 kts | 45° |
| 2026-05-05 13:07 | 46.06471 | -3.84624 | 37989 ft | 456 kts | 45° |
| 2026-05-05 13:07 | 46.10903 | -3.78093 | 37989 ft | 456 kts | 45° |
| 2026-05-05 13:08 | 46.15331 | -3.71556 | 37983 ft | 455 kts | 45° |
| 2026-05-05 13:08 | 46.19761 | -3.65017 | 37976 ft | 455 kts | 45° |
| 2026-05-05 13:09 | 46.24179 | -3.58471 | 37982 ft | 455 kts | 45° |
| 2026-05-05 13:09 | 46.28596 | -3.51902 | 37977 ft | 455 kts | 45° |
| 2026-05-05 13:10 | 46.33005 | -3.45327 | 37976 ft | 455 kts | 46° |
| 2026-05-05 13:10 | 46.37378 | -3.38805 | 37973 ft | 455 kts | 46° |
| 2026-05-05 13:11 | 46.41780 | -3.32225 | 37968 ft | 455 kts | 46° |
| 2026-05-05 13:11 | 46.46174 | -3.25617 | 37963 ft | 455 kts | 46° |
| 2026-05-05 13:12 | 46.50536 | -3.19050 | 37961 ft | 455 kts | 46° |
| 2026-05-05 13:12 | 46.54930 | -3.12419 | 37956 ft | 455 kts | 46° |
| 2026-05-05 13:13 | 46.58663 | -3.05056 | 37951 ft | 454 kts | 60° |
| 2026-05-05 13:13 | 46.61837 | -2.97121 | 37949 ft | 454 kts | 60° |
| 2026-05-05 13:14 | 46.65030 | -2.89188 | 37950 ft | 454 kts | 60° |
| 2026-05-05 13:14 | 46.68211 | -2.81245 | 37947 ft | 454 kts | 60° |
| 2026-05-05 13:15 | 46.71387 | -2.73283 | 37944 ft | 455 kts | 60° |
| 2026-05-05 13:15 | 46.74558 | -2.65308 | 37941 ft | 455 kts | 60° |
| 2026-05-05 13:16 | 46.77729 | -2.57320 | 37942 ft | 455 kts | 60° |
| 2026-05-05 13:16 | 46.80890 | -2.49313 | 37941 ft | 455 kts | 60° |
| 2026-05-05 13:17 | 46.84018 | -2.41339 | 37944 ft | 455 kts | 60° |
| 2026-05-05 13:17 | 46.87674 | -2.33824 | 37937 ft | 455 kts | 46° |
| 2026-05-05 13:18 | 46.92142 | -2.27243 | 37928 ft | 456 kts | 46° |
| 2026-05-05 13:18 | 46.96593 | -2.20635 | 37926 ft | 456 kts | 46° |
| 2026-05-05 13:19 | 47.01034 | -2.14009 | 37926 ft | 455 kts | 46° |
| 2026-05-05 13:19 | 47.05472 | -2.07365 | 37926 ft | 455 kts | 46° |
| 2026-05-05 13:20 | 47.09909 | -2.00730 | 37928 ft | 455 kts | 46° |
| 2026-05-05 13:20 | 47.14341 | -1.94085 | 37929 ft | 455 kts | 46° |
| 2026-05-05 13:21 | 47.18770 | -1.87429 | 37912 ft | 455 kts | 46° |
| 2026-05-05 13:21 | 47.23161 | -1.80814 | 37905 ft | 455 kts | 46° |
| 2026-05-05 13:22 | 47.27604 | -1.74095 | 37908 ft | 455 kts | 46° |
| 2026-05-05 13:22 | 47.31985 | -1.67456 | 37904 ft | 455 kts | 47° |
| 2026-05-05 13:23 | 47.36388 | -1.60770 | 37899 ft | 454 kts | 47° |
| 2026-05-05 13:23 | 47.40785 | -1.54067 | 37901 ft | 454 kts | 47° |
| 2026-05-05 13:24 | 47.45173 | -1.47353 | 37897 ft | 454 kts | 47° |
| 2026-05-05 13:24 | 47.49561 | -1.40640 | 37897 ft | 454 kts | 47° |
| 2026-05-05 13:25 | 47.53943 | -1.33911 | 37898 ft | 454 kts | 47° |
| 2026-05-05 13:25 | 47.58335 | -1.27164 | 37897 ft | 454 kts | 47° |
| 2026-05-05 13:26 | 47.62716 | -1.20418 | 37892 ft | 454 kts | 47° |
| 2026-05-05 13:26 | 47.67092 | -1.13647 | 37891 ft | 454 kts | 47° |
| 2026-05-05 13:27 | 47.71455 | -1.06857 | 37890 ft | 454 kts | 47° |
| 2026-05-05 13:27 | 47.75785 | -1.00114 | 37888 ft | 454 kts | 47° |
| 2026-05-05 13:28 | 47.79985 | -0.93123 | 37887 ft | 451 kts | 58° |
| 2026-05-05 13:28 | 47.83213 | -0.85113 | 37889 ft | 451 kts | 62° |
| 2026-05-05 13:29 | 47.85843 | -0.78402 | 37890 ft | 451 kts | 61° |
| 2026-05-05 13:29 | 47.89003 | -0.70312 | 37892 ft | 453 kts | 61° |
| 2026-05-05 13:30 | 47.92175 | -0.62200 | 37892 ft | 452 kts | 61° |
| 2026-05-05 13:30 | 47.95335 | -0.54078 | 37893 ft | 452 kts | 61° |
| 2026-05-05 13:31 | 47.98529 | -0.45986 | 37887 ft | 453 kts | 55° |
| 2026-05-05 13:31 | 48.02658 | -0.38877 | 37886 ft | 454 kts | 49° |
| 2026-05-05 13:32 | 48.06981 | -0.31973 | 37889 ft | 455 kts | 49° |
| 2026-05-05 13:32 | 48.11300 | -0.25045 | 37876 ft | 454 kts | 48° |
| 2026-05-05 13:33 | 48.15642 | -0.18154 | 37875 ft | 454 kts | 47° |
| 2026-05-05 13:33 | 48.20078 | -0.11423 | 37875 ft | 454 kts | 46° |
| 2026-05-05 13:34 | 48.24543 | -0.04714 | 37881 ft | 454 kts | 46° |
| 2026-05-05 13:34 | 48.28985 | 0.02036 | 37877 ft | 454 kts | 47° |
| 2026-05-05 13:35 | 48.33369 | 0.08766 | 37874 ft | 453 kts | 47° |
| 2026-05-05 13:35 | 48.37767 | 0.15557 | 37873 ft | 453 kts | 47° |
| 2026-05-05 13:36 | 48.42170 | 0.22339 | 37869 ft | 453 kts | 47° |
| 2026-05-05 13:36 | 48.46566 | 0.29126 | 37867 ft | 453 kts | 47° |
| 2026-05-05 13:37 | 48.50969 | 0.35936 | 37865 ft | 453 kts | 47° |
| 2026-05-05 13:37 | 48.55354 | 0.42760 | 37863 ft | 453 kts | 47° |
| 2026-05-05 13:38 | 48.59735 | 0.49592 | 37864 ft | 453 kts | 47° |
| 2026-05-05 13:38 | 48.64125 | 0.56438 | 37861 ft | 453 kts | 47° |
| 2026-05-05 13:39 | 48.68501 | 0.63279 | 37861 ft | 453 kts | 47° |
| 2026-05-05 13:39 | 48.72874 | 0.70148 | 37860 ft | 453 kts | 47° |
| 2026-05-05 13:40 | 48.77242 | 0.77037 | 37868 ft | 453 kts | 47° |
| 2026-05-05 13:40 | 48.81578 | 0.83886 | 37869 ft | 453 kts | 47° |
| 2026-05-05 13:41 | 48.85943 | 0.90789 | 37878 ft | 453 kts | 47° |
| 2026-05-05 13:41 | 48.90316 | 0.97716 | 37879 ft | 453 kts | 48° |
| 2026-05-05 13:42 | 48.94674 | 1.04640 | 37888 ft | 453 kts | 48° |
| 2026-05-05 13:42 | 48.99023 | 1.11590 | 37889 ft | 453 kts | 48° |
| 2026-05-05 13:43 | 49.03372 | 1.18571 | 37886 ft | 454 kts | 48° |
| 2026-05-05 13:43 | 49.07717 | 1.25553 | 37886 ft | 454 kts | 48° |
| 2026-05-05 13:44 | 49.12044 | 1.32505 | 37887 ft | 455 kts | 48° |
| 2026-05-05 13:44 | 49.16396 | 1.39516 | 37881 ft | 455 kts | 48° |
| 2026-05-05 13:45 | 49.20749 | 1.46553 | 37875 ft | 455 kts | 48° |
| 2026-05-05 13:45 | 49.25095 | 1.53617 | 37874 ft | 456 kts | 48° |
| 2026-05-05 13:46 | 49.29535 | 1.60543 | 37874 ft | 456 kts | 45° |
| 2026-05-05 13:46 | 49.34178 | 1.67204 | 37862 ft | 457 kts | 44° |
| 2026-05-05 13:47 | 49.38832 | 1.73833 | 37867 ft | 457 kts | 45° |
| 2026-05-05 13:47 | 49.43455 | 1.80563 | 37865 ft | 458 kts | 45° |
| 2026-05-05 13:48 | 49.48046 | 1.87344 | 37866 ft | 458 kts | 45° |
| 2026-05-05 13:48 | 49.52608 | 1.94102 | 37864 ft | 458 kts | 45° |
| 2026-05-05 13:49 | 49.57202 | 2.00908 | 37866 ft | 459 kts | 46° |
| 2026-05-05 13:49 | 49.61805 | 2.07741 | 37623 ft | 459 kts | 46° |
| 2026-05-05 13:50 | 49.64110 | 2.11167 | 37352 ft | 459 kts | 46° |
| 2026-05-05 13:50 | 49.66404 | 2.14589 | 37082 ft | 458 kts | 46° |
| 2026-05-05 13:50 | 49.68696 | 2.18013 | 36813 ft | 458 kts | 46° |
| 2026-05-05 13:50 | 49.70991 | 2.21442 | 36552 ft | 458 kts | 46° |
| 2026-05-05 13:51 | 49.73278 | 2.24861 | 36283 ft | 458 kts | 46° |
| 2026-05-05 13:51 | 49.75570 | 2.28290 | 35528 ft | 460 kts | 46° |
| 2026-05-05 13:51 | 49.77877 | 2.31748 | 34689 ft | 463 kts | 46° |
| 2026-05-05 13:51 | 49.80157 | 2.35172 | 34014 ft | 461 kts | 46° |
| 2026-05-05 13:52 | 49.82452 | 2.38621 | 33396 ft | 457 kts | 46° |
| 2026-05-05 13:52 | 49.84714 | 2.42029 | 32820 ft | 451 kts | 46° |
| 2026-05-05 13:52 | 49.86954 | 2.45408 | 32232 ft | 447 kts | 46° |
| 2026-05-05 13:52 | 49.89170 | 2.48755 | 31661 ft | 442 kts | 46° |
| 2026-05-05 13:53 | 49.91360 | 2.52066 | 31095 ft | 438 kts | 46° |
| 2026-05-05 13:53 | 49.93536 | 2.55363 | 30533 ft | 435 kts | 46° |
| 2026-05-05 13:53 | 49.95687 | 2.58631 | 29987 ft | 431 kts | 46° |
| 2026-05-05 13:53 | 49.97820 | 2.61878 | 29393 ft | 428 kts | 46° |
| 2026-05-05 13:54 | 49.99935 | 2.65095 | 28868 ft | 423 kts | 46° |
| 2026-05-05 13:54 | 50.02025 | 2.68276 | 28346 ft | 419 kts | 46° |
| 2026-05-05 13:54 | 50.04099 | 2.71434 | 27829 ft | 414 kts | 46° |
| 2026-05-05 13:54 | 50.06146 | 2.74556 | 27338 ft | 410 kts | 46° |
| 2026-05-05 13:55 | 50.08175 | 2.77654 | 26844 ft | 407 kts | 46° |
| 2026-05-05 13:55 | 50.10182 | 2.80726 | 26369 ft | 403 kts | 46° |
| 2026-05-05 13:55 | 50.12174 | 2.83782 | 25889 ft | 400 kts | 46° |
| 2026-05-05 13:55 | 50.14013 | 2.86988 | 25427 ft | 394 kts | 57° |
| 2026-05-05 13:56 | 50.15503 | 2.90639 | 24406 ft | 405 kts | 60° |
| 2026-05-05 13:56 | 50.16976 | 2.94465 | 23357 ft | 417 kts | 61° |
| 2026-05-05 13:56 | 50.18445 | 2.98381 | 22487 ft | 419 kts | 62° |
| 2026-05-05 13:56 | 50.19904 | 3.02300 | 21869 ft | 416 kts | 62° |
| 2026-05-05 13:57 | 50.21353 | 3.06184 | 21296 ft | 412 kts | 62° |
| 2026-05-05 13:57 | 50.22790 | 3.10020 | 20777 ft | 407 kts | 62° |
| 2026-05-05 13:57 | 50.24200 | 3.13763 | 20244 ft | 403 kts | 61° |
| 2026-05-05 13:57 | 50.25615 | 3.17519 | 19740 ft | 399 kts | 60° |
| 2026-05-05 13:58 | 50.27016 | 3.21233 | 19238 ft | 395 kts | 60° |
| 2026-05-05 13:58 | 50.28402 | 3.24912 | 18759 ft | 391 kts | 61° |
| 2026-05-05 13:58 | 50.29774 | 3.28562 | 18264 ft | 387 kts | 60° |
| 2026-05-05 13:58 | 50.31132 | 3.32178 | 17731 ft | 384 kts | 60° |
| 2026-05-05 13:59 | 50.33804 | 3.39311 | 16674 ft | 376 kts | 60° |
| 2026-05-05 13:59 | 50.35116 | 3.42828 | 16163 ft | 373 kts | 60° |
| 2026-05-05 14:00 | 50.37705 | 3.49786 | 15160 ft | 365 kts | 61° |
| 2026-05-05 14:00 | 50.38547 | 3.52053 | 14838 ft | 363 kts | 61° |
| 2026-05-05 14:00 | 50.40238 | 3.56603 | 14269 ft | 361 kts | 61° |
| 2026-05-05 14:00 | 50.41493 | 3.59988 | 13794 ft | 357 kts | 61° |
| 2026-05-05 14:01 | 50.42736 | 3.63350 | 13266 ft | 354 kts | 61° |
| 2026-05-05 14:01 | 50.43961 | 3.66665 | 12738 ft | 350 kts | 61° |
| 2026-05-05 14:01 | 50.45155 | 3.69897 | 12214 ft | 333 kts | 60° |
| 2026-05-05 14:01 | 50.46276 | 3.72929 | 11713 ft | 318 kts | 60° |
| 2026-05-05 14:02 | 50.47363 | 3.75869 | 11208 ft | 305 kts | 61° |
| 2026-05-05 14:02 | 50.48408 | 3.78705 | 10710 ft | 296 kts | 61° |
| 2026-05-05 14:02 | 50.49424 | 3.81465 | 10245 ft | 288 kts | 61° |
| 2026-05-05 14:02 | 50.50422 | 3.84183 | 9908 ft | 285 kts | 61° |
| 2026-05-05 14:03 | 50.51404 | 3.86868 | 9560 ft | 282 kts | 61° |
| 2026-05-05 14:03 | 50.52374 | 3.89520 | 9187 ft | 279 kts | 61° |
| 2026-05-05 14:03 | 50.53340 | 3.92160 | 8820 ft | 276 kts | 61° |
| 2026-05-05 14:03 | 50.54294 | 3.94767 | 8458 ft | 274 kts | 61° |
| 2026-05-05 14:04 | 50.55241 | 3.97358 | 8099 ft | 272 kts | 61° |
| 2026-05-05 14:04 | 50.56179 | 3.99922 | 7741 ft | 270 kts | 61° |
| 2026-05-05 14:04 | 50.57111 | 4.02475 | 7394 ft | 268 kts | 61° |
| 2026-05-05 14:04 | 50.58038 | 4.05022 | 7057 ft | 267 kts | 61° |
| 2026-05-05 14:05 | 50.58961 | 4.07560 | 6707 ft | 266 kts | 61° |
| 2026-05-05 14:05 | 50.59881 | 4.10086 | 6371 ft | 265 kts | 61° |
| 2026-05-05 14:05 | 50.60794 | 4.12598 | 6013 ft | 263 kts | 61° |
| 2026-05-05 14:05 | 50.61696 | 4.15083 | 5659 ft | 262 kts | 60° |
| 2026-05-05 14:06 | 50.62557 | 4.17464 | 5354 ft | 258 kts | 60° |
| 2026-05-05 14:06 | 50.63435 | 4.19894 | 5051 ft | 252 kts | 60° |
| 2026-05-05 14:06 | 50.64281 | 4.22235 | 4915 ft | 240 kts | 60° |
| 2026-05-05 14:06 | 50.65085 | 4.24459 | 4742 ft | 229 kts | 60° |
| 2026-05-05 14:07 | 50.65864 | 4.26613 | 4430 ft | 227 kts | 59° |
| 2026-05-05 14:07 | 50.66637 | 4.28755 | 4276 ft | 223 kts | 59° |
| 2026-05-05 14:07 | 50.67369 | 4.30791 | 4162 ft | 212 kts | 59° |
| 2026-05-05 14:07 | 50.68076 | 4.32765 | 4072 ft | 204 kts | 59° |
| 2026-05-05 14:08 | 50.68773 | 4.34703 | 3982 ft | 202 kts | 59° |
| 2026-05-05 14:08 | 50.69469 | 4.36636 | 3896 ft | 202 kts | 59° |
| 2026-05-05 14:08 | 50.70161 | 4.38559 | 3804 ft | 199 kts | 59° |
| 2026-05-05 14:08 | 50.70830 | 4.40398 | 3719 ft | 187 kts | 56° |
| 2026-05-05 14:09 | 50.71695 | 4.41859 | 3632 ft | 182 kts | 35° |
| 2026-05-05 14:09 | 50.72828 | 4.42704 | 3449 ft | 181 kts | 15° |
| 2026-05-05 14:09 | 50.74042 | 4.43193 | 3222 ft | 180 kts | 16° |
| 2026-05-05 14:09 | 50.75252 | 4.43681 | 2990 ft | 179 kts | 15° |
| 2026-05-05 14:10 | 50.76459 | 4.44169 | 2747 ft | 179 kts | 15° |
| 2026-05-05 14:10 | 50.77662 | 4.44657 | 2506 ft | 178 kts | 15° |
| 2026-05-05 14:10 | 50.78852 | 4.45139 | 2265 ft | 176 kts | 14° |
| 2026-05-05 14:10 | 50.80035 | 4.45619 | 2054 ft | 173 kts | 15° |
| 2026-05-05 14:11 | 50.81179 | 4.46083 | 1805 ft | 165 kts | 15° |
| 2026-05-05 14:11 | 50.82242 | 4.46515 | 1572 ft | 150 kts | 15° |
| 2026-05-05 14:11 | 50.83216 | 4.46911 | 1374 ft | 141 kts | 15° |
| 2026-05-05 14:11 | 50.84149 | 4.47290 | 1185 ft | 137 kts | 15° |
| 2026-05-05 14:12 | 50.85069 | 4.47665 | 984 ft | 136 kts | 15° |
| 2026-05-05 14:12 | 50.85988 | 4.48035 | 807 ft | 137 kts | 15° |
| 2026-05-05 14:12 | 50.86908 | 4.48406 | 602 ft | 136 kts | 15° |
| 2026-05-05 14:12 | 50.87823 | 4.48791 | 417 ft | 136 kts | 16° |
| 2026-05-05 14:13 | 50.88737 | 4.49163 | 249 ft | 136 kts | 15° |
| 2026-05-05 14:13 | 50.89034 | 4.49284 | 200 ft | 135 kts | 15° |
| 2026-05-05 14:13 | 50.89659 | 4.49537 | 247 ft | 112 kts | 15° |
| 2026-05-05 14:13 | 50.90552 | 4.49906 | 671 ft | 145 kts | 16° |
| 2026-05-05 14:14 | 50.91518 | 4.50178 | 1435 ft | 155 kts | 357° |
| 2026-05-05 14:14 | 50.92516 | 4.49461 | 2123 ft | 169 kts | 320° |
| 2026-05-05 14:14 | 50.93328 | 4.47908 | 2450 ft | 198 kts | 308° |
| 2026-05-05 14:14 | 50.94147 | 4.46028 | 2911 ft | 221 kts | 306° |
| 2026-05-05 14:15 | 50.94745 | 4.43720 | 3633 ft | 237 kts | 279° |
| 2026-05-05 14:15 | 50.94563 | 4.41111 | 3890 ft | 243 kts | 249° |
| 2026-05-05 14:15 | 50.93563 | 4.38981 | 3941 ft | 244 kts | 216° |
| 2026-05-05 14:15 | 50.92019 | 4.37951 | 3956 ft | 243 kts | 189° |
| 2026-05-05 14:16 | 50.90343 | 4.37634 | 3956 ft | 242 kts | 183° |
| 2026-05-05 14:16 | 50.89203 | 4.37490 | 3952 ft | 242 kts | 183° |
| 2026-05-05 14:16 | 50.87520 | 4.37272 | 3953 ft | 243 kts | 187° |
| 2026-05-05 14:16 | 50.85904 | 4.36632 | 3947 ft | 243 kts | 204° |
| 2026-05-05 14:17 | 50.84386 | 4.35448 | 3950 ft | 243 kts | 206° |
| 2026-05-05 14:17 | 50.82876 | 4.34251 | 3957 ft | 244 kts | 206° |
| 2026-05-05 14:17 | 50.81359 | 4.33045 | 3949 ft | 244 kts | 206° |
| 2026-05-05 14:17 | 50.79845 | 4.31838 | 3953 ft | 244 kts | 206° |
| 2026-05-05 14:18 | 50.78332 | 4.30631 | 3874 ft | 244 kts | 206° |
| 2026-05-05 14:18 | 50.76824 | 4.29428 | 3723 ft | 242 kts | 206° |
| 2026-05-05 14:18 | 50.75252 | 4.28504 | 3602 ft | 240 kts | 187° |
| 2026-05-05 14:18 | 50.73646 | 4.28582 | 3474 ft | 225 kts | 163° |
| 2026-05-05 14:19 | 50.72265 | 4.29533 | 3345 ft | 212 kts | 142° |
| 2026-05-05 14:19 | 50.71238 | 4.31089 | 3218 ft | 200 kts | 121° |
| 2026-05-05 14:19 | 50.70627 | 4.32977 | 3093 ft | 189 kts | 103° |
| 2026-05-05 14:19 | 50.70431 | 4.34976 | 2961 ft | 183 kts | 85° |
| 2026-05-05 14:20 | 50.70622 | 4.36938 | 2836 ft | 180 kts | 72° |
| 2026-05-05 14:20 | 50.70933 | 4.38848 | 2708 ft | 179 kts | 73° |
| 2026-05-05 14:20 | 50.71379 | 4.40664 | 2582 ft | 177 kts | 56° |
| 2026-05-05 14:20 | 50.72200 | 4.42072 | 2455 ft | 175 kts | 34° |
| 2026-05-05 14:21 | 50.73293 | 4.42891 | 2328 ft | 175 kts | 15° |
| 2026-05-05 14:21 | 50.74480 | 4.43368 | 2201 ft | 175 kts | 15° |
| 2026-05-05 14:21 | 50.75660 | 4.43845 | 2073 ft | 174 kts | 15° |
| 2026-05-05 14:21 | 50.76816 | 4.44313 | 1996 ft | 174 kts | 15° |
| 2026-05-05 14:22 | 50.78006 | 4.44796 | 1950 ft | 174 kts | 15° |
| 2026-05-05 14:22 | 50.79195 | 4.45278 | 1990 ft | 178 kts | 14° |
| 2026-05-05 14:22 | 50.80309 | 4.45729 | 1878 ft | 157 kts | 15° |
| 2026-05-05 14:22 | 50.81303 | 4.46133 | 1725 ft | 140 kts | 15° |
| 2026-05-05 14:23 | 50.82227 | 4.46509 | 1564 ft | 132 kts | 15° |
| 2026-05-05 14:23 | 50.83100 | 4.46864 | 1396 ft | 131 kts | 15° |
| 2026-05-05 14:23 | 50.83976 | 4.47220 | 1219 ft | 129 kts | 15° |
| 2026-05-05 14:23 | 50.84838 | 4.47571 | 1034 ft | 129 kts | 15° |
| 2026-05-05 14:24 | 50.85710 | 4.47919 | 868 ft | 128 kts | 15° |
| 2026-05-05 14:24 | 50.86575 | 4.48267 | 621 ft | 130 kts | 15° |
| 2026-05-05 14:24 | 50.87429 | 4.48624 | 481 ft | 126 kts | 15° |
| 2026-05-05 14:24 | 50.88285 | 4.48973 | 312 ft | 127 kts | 14° |
| 2026-05-05 14:25 | 50.89138 | 4.49320 | 179 ft | 123 kts | 14° |
| 2026-05-05 14:25 | 50.89833 | 4.49608 | 142 ft | 79 kts | 14° |
| 2026-05-05 14:25 | 50.90181 | 4.49717 | 127 ft | 36 kts | 355° |
| 2026-05-05 14:25 | 50.90402 | 4.49628 | 125 ft | 26 kts | 345° |
| 2026-05-05 14:26 | 50.90571 | 4.49641 | 124 ft | 24 kts | 14° |
| 2026-05-05 14:26 | 50.90735 | 4.49707 | 122 ft | 24 kts | 14° |
| 2026-05-05 14:26 | 50.90836 | 4.49641 | 124 ft | 17 kts | 314° |
| 2026-05-05 14:26 | 50.90845 | 4.49493 | 123 ft | 14 kts | 243° |
| 2026-05-05 14:27 | 50.90797 | 4.49328 | 120 ft | 18 kts | 245° |
| 2026-05-05 14:27 | 50.90725 | 4.49080 | 118 ft | 28 kts | 245° |
| 2026-05-05 14:27 | 50.90641 | 4.48784 | 120 ft | 31 kts | 245° |
| 2026-05-05 14:27 | 50.90549 | 4.48471 | 118 ft | 31 kts | 245° |
| 2026-05-05 14:28 | 50.90471 | 4.48201 | 120 ft | 21 kts | 245° |
| 2026-05-05 14:28 | 50.90424 | 4.48050 | 120 ft | 11 kts | 227° |
| 2026-05-05 14:28 | 50.90358 | 4.48033 | 121 ft | 9 kts | 197° |
| 2026-05-05 14:28 | 50.90323 | 4.47956 | 120 ft | 8 kts | 244° |
| 2026-05-05 14:29 | 50.90299 | 4.47876 | 118 ft | 8 kts | 244° |
| 2026-05-05 14:29 | 50.90263 | 4.47850 | 119 ft | 6 kts | 159° |
| 2026-05-05 14:29 | 50.90229 | 4.47873 | 120 ft | 5 kts | 156° |
| 2026-05-05 14:29 | 50.90212 | 4.47885 | 120 ft | 0 kts | 156° |